sensor_id;sensor_type;location;lat;lon;timestamp;pressure;altitude;pressure_sealevel;temperature
21898;BMP180;11113;48.662;9.056;2022-07-19T12:14:32;96904.00;;;36.80
21898;BMP180;11113;48.662;9.056;2022-07-19T12:17:21;96885.00;;;37.40
21898;BMP180;11113;48.662;9.056;2022-07-19T12:20:11;96882.00;;;37.30
21898;BMP180;11113;48.662;9.056;2022-07-19T12:22:39;96889.00;;;37.60
21898;BMP180;11113;48.662;9.056;2022-07-19T12:25:08;96874.00;;;37.80
21898;BMP180;11113;48.662;9.056;2022-07-19T12:27:35;96883.00;;;37.90
21898;BMP180;11113;48.662;9.056;2022-07-19T12:30:04;96881.00;;;37.90
21898;BMP180;11113;48.662;9.056;2022-07-19T12:32:38;96885.00;;;37.90
21898;BMP180;11113;48.662;9.056;2022-07-19T12:35:11;96870.00;;;38.20
21898;BMP180;11113;48.662;9.056;2022-07-19T12:37:48;96877.00;;;38.40
21898;BMP180;11113;48.662;9.056;2022-07-19T12:40:25;96871.00;;;38.30
21898;BMP180;11113;48.662;9.056;2022-07-19T12:42:58;96871.00;;;38.50
21898;BMP180;11113;48.662;9.056;2022-07-19T12:45:37;96872.00;;;38.30
21898;BMP180;11113;48.662;9.056;2022-07-19T12:48:06;96872.00;;;38.10
21898;BMP180;11113;48.662;9.056;2022-07-19T12:50:36;96858.00;;;38.30
21898;BMP180;11113;48.662;9.056;2022-07-19T12:53:09;96855.00;;;38.20
21898;BMP180;11113;48.662;9.056;2022-07-19T12:55:37;96860.00;;;38.10
21898;BMP180;11113;48.662;9.056;2022-07-19T12:58:06;96864.00;;;38.30
21898;BMP180;11113;48.662;9.056;2022-07-19T13:00:34;96857.00;;;38.30
21898;BMP180;11113;48.662;9.056;2022-07-19T13:03:00;96853.00;;;38.50
21898;BMP180;11113;48.662;9.056;2022-07-19T13:05:28;96857.00;;;38.50
21898;BMP180;11113;48.662;9.056;2022-07-19T13:07:55;96855.00;;;38.60
21898;BMP180;11113;48.662;9.056;2022-07-19T13:10:21;96841.00;;;38.70
21898;BMP180;11113;48.662;9.056;2022-07-19T13:12:47;96835.00;;;38.40
21898;BMP180;11113;48.662;9.056;2022-07-19T13:15:15;96840.00;;;38.40
21898;BMP180;11113;48.662;9.056;2022-07-19T13:17:41;96837.00;;;38.40
21898;BMP180;11113;48.662;9.056;2022-07-19T13:20:09;96841.00;;;38.40
21898;BMP180;11113;48.662;9.056;2022-07-19T13:22:37;96832.00;;;38.50
21898;BMP180;11113;48.662;9.056;2022-07-19T13:25:04;96845.00;;;38.50
21898;BMP180;11113;48.662;9.056;2022-07-19T13:27:30;96835.00;;;38.60
21898;BMP180;11113;48.662;9.056;2022-07-19T13:29:56;96833.00;;;38.50
21898;BMP180;11113;48.662;9.056;2022-07-19T13:32:22;96825.00;;;38.70
21898;BMP180;11113;48.662;9.056;2022-07-19T13:34:48;96821.00;;;38.80
21898;BMP180;11113;48.662;9.056;2022-07-19T13:37:13;96821.00;;;38.90
21898;BMP180;11113;48.662;9.056;2022-07-19T13:39:39;96808.00;;;39.20
21898;BMP180;11113;48.662;9.056;2022-07-19T13:42:05;96810.00;;;39.10
21898;BMP180;11113;48.662;9.056;2022-07-19T13:44:31;96815.00;;;38.90
21898;BMP180;11113;48.662;9.056;2022-07-19T13:46:57;96811.00;;;38.40
21898;BMP180;11113;48.662;9.056;2022-07-19T13:49:26;96799.00;;;38.50
21898;BMP180;11113;48.662;9.056;2022-07-19T13:51:55;96801.00;;;38.80
21898;BMP180;11113;48.662;9.056;2022-07-19T13:54:22;96797.00;;;38.90
21898;BMP180;11113;48.662;9.056;2022-07-19T13:56:48;96801.00;;;38.80
21898;BMP180;11113;48.662;9.056;2022-07-19T13:59:24;96798.00;;;38.70
21898;BMP180;11113;48.662;9.056;2022-07-19T14:02:00;96788.00;;;38.90
21898;BMP180;11113;48.662;9.056;2022-07-19T14:04:45;96789.00;;;39.40
21898;BMP180;11113;48.662;9.056;2022-07-19T14:07:17;96789.00;;;39.20
21898;BMP180;11113;48.662;9.056;2022-07-19T14:09:50;96787.00;;;39.10
21898;BMP180;11113;48.662;9.056;2022-07-19T14:12:15;96782.00;;;39.00
21898;BMP180;11113;48.662;9.056;2022-07-19T14:14:41;96785.00;;;39.00
21898;BMP180;11113;48.662;9.056;2022-07-19T14:17:07;96790.00;;;39.00
21898;BMP180;11113;48.662;9.056;2022-07-19T14:19:33;96791.00;;;38.70
21898;BMP180;11113;48.662;9.056;2022-07-19T14:22:00;96779.00;;;38.70
21898;BMP180;11113;48.662;9.056;2022-07-19T14:24:26;96782.00;;;39.00
21898;BMP180;11113;48.662;9.056;2022-07-19T14:26:52;96785.00;;;38.90
21898;BMP180;11113;48.662;9.056;2022-07-19T14:29:17;96784.00;;;38.80
21898;BMP180;11113;48.662;9.056;2022-07-19T14:31:43;96789.00;;;39.00
21898;BMP180;11113;48.662;9.056;2022-07-19T14:34:09;96781.00;;;39.10
21898;BMP180;11113;48.662;9.056;2022-07-19T14:36:36;96789.00;;;39.00
21898;BMP180;11113;48.662;9.056;2022-07-19T14:39:02;96781.00;;;39.10
21898;BMP180;11113;48.662;9.056;2022-07-19T14:41:27;96772.00;;;39.10
21898;BMP180;11113;48.662;9.056;2022-07-19T14:44:03;96771.00;;;39.10
21898;BMP180;11113;48.662;9.056;2022-07-19T14:46:40;96769.00;;;38.70
21898;BMP180;11113;48.662;9.056;2022-07-19T14:49:09;96771.00;;;38.80
21898;BMP180;11113;48.662;9.056;2022-07-19T14:51:36;96772.00;;;38.60
21898;BMP180;11113;48.662;9.056;2022-07-19T14:54:11;96764.00;;;38.50
21898;BMP180;11113;48.662;9.056;2022-07-19T14:57:01;96765.00;;;38.70
21898;BMP180;11113;48.662;9.056;2022-07-19T14:59:36;96760.00;;;38.70
21898;BMP180;11113;48.662;9.056;2022-07-19T15:02:02;96756.00;;;38.80
21898;BMP180;11113;48.662;9.056;2022-07-19T15:04:37;96764.00;;;38.70
21898;BMP180;11113;48.662;9.056;2022-07-19T15:07:19;96752.00;;;38.50
21898;BMP180;11113;48.662;9.056;2022-07-19T15:09:52;96746.00;;;38.80
21898;BMP180;11113;48.662;9.056;2022-07-19T15:12:34;96755.00;;;38.80
21898;BMP180;11113;48.662;9.056;2022-07-19T15:15:06;96746.00;;;39.00
21898;BMP180;11113;48.662;9.056;2022-07-19T15:17:40;96731.00;;;39.10
21898;BMP180;11113;48.662;9.056;2022-07-19T15:20:19;96732.00;;;38.70
21898;BMP180;11113;48.662;9.056;2022-07-19T15:22:48;96727.00;;;38.60
21898;BMP180;11113;48.662;9.056;2022-07-19T15:25:22;96739.00;;;38.40
21898;BMP180;11113;48.662;9.056;2022-07-19T15:27:52;96721.00;;;38.60
21898;BMP180;11113;48.662;9.056;2022-07-19T15:30:22;96730.00;;;38.40
21898;BMP180;11113;48.662;9.056;2022-07-19T15:32:48;96736.00;;;38.30
21898;BMP180;11113;48.662;9.056;2022-07-19T15:35:14;96718.00;;;38.20
21898;BMP180;11113;48.662;9.056;2022-07-19T15:37:41;96722.00;;;38.30
21898;BMP180;11113;48.662;9.056;2022-07-19T15:40:10;96723.00;;;38.20
21898;BMP180;11113;48.662;9.056;2022-07-19T15:42:53;96731.00;;;38.30
21898;BMP180;11113;48.662;9.056;2022-07-19T15:45:25;96727.00;;;38.20
21898;BMP180;11113;48.662;9.056;2022-07-19T15:47:57;96716.00;;;38.30
21898;BMP180;11113;48.662;9.056;2022-07-19T15:50:31;96718.00;;;38.20
21898;BMP180;11113;48.662;9.056;2022-07-19T15:53:07;96723.00;;;38.00
21898;BMP180;11113;48.662;9.056;2022-07-19T15:55:39;96724.00;;;37.90
21898;BMP180;11113;48.662;9.056;2022-07-19T15:58:06;96716.00;;;38.30
21898;BMP180;11113;48.662;9.056;2022-07-19T16:00:38;96715.00;;;38.50
21898;BMP180;11113;48.662;9.056;2022-07-19T16:03:08;96714.00;;;38.60
21898;BMP180;11113;48.662;9.056;2022-07-19T16:05:36;96706.00;;;38.40
21898;BMP180;11113;48.662;9.056;2022-07-19T16:08:02;96713.00;;;38.20
21898;BMP180;11113;48.662;9.056;2022-07-19T16:10:28;96717.00;;;38.00
21898;BMP180;11113;48.662;9.056;2022-07-19T16:12:54;96698.00;;;38.00
21898;BMP180;11113;48.662;9.056;2022-07-19T16:15:20;96694.00;;;37.80
21898;BMP180;11113;48.662;9.056;2022-07-19T16:17:46;96702.00;;;37.60
21898;BMP180;11113;48.662;9.056;2022-07-19T16:20:14;96691.00;;;37.50
21898;BMP180;11113;48.662;9.056;2022-07-19T16:22:40;96702.00;;;37.20
21898;BMP180;11113;48.662;9.056;2022-07-19T16:25:07;96693.00;;;37.10
21898;BMP180;11113;48.662;9.056;2022-07-19T16:27:33;96695.00;;;37.10
21898;BMP180;11113;48.662;9.056;2022-07-19T16:29:59;96687.00;;;37.10
21898;BMP180;11113;48.662;9.056;2022-07-19T16:32:24;96691.00;;;37.20
21898;BMP180;11113;48.662;9.056;2022-07-19T16:34:50;96691.00;;;37.30
21898;BMP180;11113;48.662;9.056;2022-07-19T16:37:18;96681.00;;;37.30
21898;BMP180;11113;48.662;9.056;2022-07-19T16:39:44;96686.00;;;37.10
21898;BMP180;11113;48.662;9.056;2022-07-19T16:42:10;96679.00;;;37.10
21898;BMP180;11113;48.662;9.056;2022-07-19T16:44:36;96687.00;;;37.20
21898;BMP180;11113;48.662;9.056;2022-07-19T16:47:02;96680.00;;;37.30
21898;BMP180;11113;48.662;9.056;2022-07-19T16:49:28;96677.00;;;37.00
21898;BMP180;11113;48.662;9.056;2022-07-19T16:51:54;96682.00;;;36.90
21898;BMP180;11113;48.662;9.056;2022-07-19T16:54:19;96676.00;;;36.80
21898;BMP180;11113;48.662;9.056;2022-07-19T16:56:45;96680.00;;;36.90
21898;BMP180;11113;48.662;9.056;2022-07-19T16:59:11;96673.00;;;36.70
21898;BMP180;11113;48.662;9.056;2022-07-19T17:01:37;96676.00;;;36.80
21898;BMP180;11113;48.662;9.056;2022-07-19T17:04:03;96672.00;;;36.70
21898;BMP180;11113;48.662;9.056;2022-07-19T17:06:29;96684.00;;;36.40
21898;BMP180;11113;48.662;9.056;2022-07-19T17:08:55;96683.00;;;36.40
21898;BMP180;11113;48.662;9.056;2022-07-19T17:11:21;96681.00;;;36.40
21898;BMP180;11113;48.662;9.056;2022-07-19T17:13:49;96688.00;;;36.20
21898;BMP180;11113;48.662;9.056;2022-07-19T17:16:15;96679.00;;;36.20
21898;BMP180;11113;48.662;9.056;2022-07-19T17:18:42;96680.00;;;36.20
21898;BMP180;11113;48.662;9.056;2022-07-19T17:21:08;96679.00;;;36.30
21898;BMP180;11113;48.662;9.056;2022-07-19T17:23:34;96681.00;;;36.30
21898;BMP180;11113;48.662;9.056;2022-07-19T17:26:00;96677.00;;;36.20
21898;BMP180;11113;48.662;9.056;2022-07-19T17:28:26;96675.00;;;36.10
21898;BMP180;11113;48.662;9.056;2022-07-19T17:30:52;96684.00;;;36.20
21898;BMP180;11113;48.662;9.056;2022-07-19T17:33:18;96672.00;;;36.10
21898;BMP180;11113;48.662;9.056;2022-07-19T17:35:43;96678.00;;;35.80
21898;BMP180;11113;48.662;9.056;2022-07-19T17:38:09;96679.00;;;35.70
21898;BMP180;11113;48.662;9.056;2022-07-19T17:40:36;96681.00;;;35.70
21898;BMP180;11113;48.662;9.056;2022-07-19T17:43:02;96669.00;;;35.50
21898;BMP180;11113;48.662;9.056;2022-07-19T17:45:30;96668.00;;;35.40
21898;BMP180;11113;48.662;9.056;2022-07-19T17:47:56;96680.00;;;35.50
21898;BMP180;11113;48.662;9.056;2022-07-19T17:50:22;96672.00;;;35.50
21898;BMP180;11113;48.662;9.056;2022-07-19T17:52:48;96680.00;;;35.30
21898;BMP180;11113;48.662;9.056;2022-07-19T17:55:14;96673.00;;;35.30
21898;BMP180;11113;48.662;9.056;2022-07-19T17:57:40;96665.00;;;35.20
21898;BMP180;11113;48.662;9.056;2022-07-19T18:00:08;96670.00;;;35.10
21898;BMP180;11113;48.662;9.056;2022-07-19T18:02:34;96670.00;;;35.10
21898;BMP180;11113;48.662;9.056;2022-07-19T18:05:01;96674.00;;;34.90
21898;BMP180;11113;48.662;9.056;2022-07-19T18:07:30;96671.00;;;34.90
21898;BMP180;11113;48.662;9.056;2022-07-19T18:09:56;96677.00;;;34.90
21898;BMP180;11113;48.662;9.056;2022-07-19T18:12:22;96669.00;;;34.80
21898;BMP180;11113;48.662;9.056;2022-07-19T18:14:47;96675.00;;;34.80
21898;BMP180;11113;48.662;9.056;2022-07-19T18:17:13;96670.00;;;34.70
21898;BMP180;11113;48.662;9.056;2022-07-19T18:19:39;96675.00;;;34.50
21898;BMP180;11113;48.662;9.056;2022-07-19T18:22:04;96682.00;;;34.50
21898;BMP180;11113;48.662;9.056;2022-07-19T18:24:31;96682.00;;;34.40
21898;BMP180;11113;48.662;9.056;2022-07-19T18:26:57;96682.00;;;34.20
21898;BMP180;11113;48.662;9.056;2022-07-19T18:29:23;96678.00;;;34.10
21898;BMP180;11113;48.662;9.056;2022-07-19T18:31:51;96678.00;;;34.00
21898;BMP180;11113;48.662;9.056;2022-07-19T18:34:17;96687.00;;;33.80
21898;BMP180;11113;48.662;9.056;2022-07-19T18:36:43;96689.00;;;33.80
21898;BMP180;11113;48.662;9.056;2022-07-19T18:39:11;96689.00;;;33.70
21898;BMP180;11113;48.662;9.056;2022-07-19T18:41:38;96692.00;;;33.60
21898;BMP180;11113;48.662;9.056;2022-07-19T18:44:04;96688.00;;;33.50
21898;BMP180;11113;48.662;9.056;2022-07-19T18:46:31;96690.00;;;33.40
21898;BMP180;11113;48.662;9.056;2022-07-19T18:48:58;96685.00;;;33.30
21898;BMP180;11113;48.662;9.056;2022-07-19T18:51:26;96682.00;;;33.10
21898;BMP180;11113;48.662;9.056;2022-07-19T18:53:52;96692.00;;;33.00
21898;BMP180;11113;48.662;9.056;2022-07-19T18:56:18;96692.00;;;32.90
21898;BMP180;11113;48.662;9.056;2022-07-19T18:58:46;96692.00;;;32.70
21898;BMP180;11113;48.662;9.056;2022-07-19T19:01:12;96694.00;;;32.60
21898;BMP180;11113;48.662;9.056;2022-07-19T19:03:38;96684.00;;;32.50
21898;BMP180;11113;48.662;9.056;2022-07-19T19:06:05;96696.00;;;32.40
21898;BMP180;11113;48.662;9.056;2022-07-19T19:08:31;96682.00;;;32.30
21898;BMP180;11113;48.662;9.056;2022-07-19T19:10:57;96693.00;;;32.10
21898;BMP180;11113;48.662;9.056;2022-07-19T19:13:23;96689.00;;;32.00
21898;BMP180;11113;48.662;9.056;2022-07-19T19:15:49;96687.00;;;31.80
21898;BMP180;11113;48.662;9.056;2022-07-19T19:18:16;96689.00;;;31.70
21898;BMP180;11113;48.662;9.056;2022-07-19T19:20:41;96690.00;;;31.60
21898;BMP180;11113;48.662;9.056;2022-07-19T19:23:09;96690.00;;;31.50
21898;BMP180;11113;48.662;9.056;2022-07-19T19:25:34;96694.00;;;31.40
21898;BMP180;11113;48.662;9.056;2022-07-19T19:28:03;96697.00;;;31.30
21898;BMP180;11113;48.662;9.056;2022-07-19T19:30:29;96694.00;;;31.20
21898;BMP180;11113;48.662;9.056;2022-07-19T19:32:57;96694.00;;;31.10
21898;BMP180;11113;48.662;9.056;2022-07-19T19:35:23;96702.00;;;31.10
21898;BMP180;11113;48.662;9.056;2022-07-19T19:37:48;96701.00;;;31.00
21898;BMP180;11113;48.662;9.056;2022-07-19T19:40:15;96706.00;;;31.00
21898;BMP180;11113;48.662;9.056;2022-07-19T19:42:41;96708.00;;;30.90
21898;BMP180;11113;48.662;9.056;2022-07-19T19:45:08;96710.00;;;30.70
21898;BMP180;11113;48.662;9.056;2022-07-19T19:47:35;96715.00;;;30.60
21898;BMP180;11113;48.662;9.056;2022-07-19T19:50:01;96715.00;;;30.50
21898;BMP180;11113;48.662;9.056;2022-07-19T19:52:27;96713.00;;;30.50
21898;BMP180;11113;48.662;9.056;2022-07-19T19:54:53;96718.00;;;30.50
21898;BMP180;11113;48.662;9.056;2022-07-19T19:57:19;96727.00;;;30.40
21898;BMP180;11113;48.662;9.056;2022-07-19T19:59:45;96727.00;;;30.30
21898;BMP180;11113;48.662;9.056;2022-07-19T20:02:12;96720.00;;;30.20
21898;BMP180;11113;48.662;9.056;2022-07-19T20:04:38;96727.00;;;30.10
21898;BMP180;11113;48.662;9.056;2022-07-19T20:07:04;96726.00;;;30.10
21898;BMP180;11113;48.662;9.056;2022-07-19T20:09:30;96728.00;;;30.00
21898;BMP180;11113;48.662;9.056;2022-07-19T20:11:56;96720.00;;;30.00
21898;BMP180;11113;48.662;9.056;2022-07-19T20:14:22;96717.00;;;30.00
21898;BMP180;11113;48.662;9.056;2022-07-19T20:16:49;96714.00;;;30.00
21898;BMP180;11113;48.662;9.056;2022-07-19T20:19:15;96717.00;;;29.90
21898;BMP180;11113;48.662;9.056;2022-07-19T20:21:42;96717.00;;;29.90
21898;BMP180;11113;48.662;9.056;2022-07-19T20:24:08;96724.00;;;29.90
21898;BMP180;11113;48.662;9.056;2022-07-19T20:26:34;96722.00;;;29.90
21898;BMP180;11113;48.662;9.056;2022-07-19T20:29:00;96731.00;;;29.90
21898;BMP180;11113;48.662;9.056;2022-07-19T20:31:27;96727.00;;;29.90
21898;BMP180;11113;48.662;9.056;2022-07-19T20:33:53;96726.00;;;30.00
21898;BMP180;11113;48.662;9.056;2022-07-19T20:36:19;96731.00;;;29.90
21898;BMP180;11113;48.662;9.056;2022-07-19T20:38:45;96725.00;;;29.90
21898;BMP180;11113;48.662;9.056;2022-07-19T20:41:11;96727.00;;;29.90
21898;BMP180;11113;48.662;9.056;2022-07-19T20:43:37;96727.00;;;29.80
21898;BMP180;11113;48.662;9.056;2022-07-19T20:46:07;96732.00;;;29.80
21898;BMP180;11113;48.662;9.056;2022-07-19T20:48:33;96732.00;;;29.80
21898;BMP180;11113;48.662;9.056;2022-07-19T20:50:59;96733.00;;;29.80
21898;BMP180;11113;48.662;9.056;2022-07-19T20:53:25;96743.00;;;29.80
21898;BMP180;11113;48.662;9.056;2022-07-19T20:55:50;96745.00;;;29.70
21898;BMP180;11113;48.662;9.056;2022-07-19T20:58:16;96747.00;;;29.60
21898;BMP180;11113;48.662;9.056;2022-07-19T21:00:42;96754.00;;;29.60
21898;BMP180;11113;48.662;9.056;2022-07-19T21:03:08;96752.00;;;29.50
21898;BMP180;11113;48.662;9.056;2022-07-19T21:05:35;96751.00;;;29.30
21898;BMP180;11113;48.662;9.056;2022-07-19T21:08:03;96752.00;;;29.20
21898;BMP180;11113;48.662;9.056;2022-07-19T21:10:28;96757.00;;;29.00
21898;BMP180;11113;48.662;9.056;2022-07-19T21:12:55;96752.00;;;28.90
21898;BMP180;11113;48.662;9.056;2022-07-19T21:15:22;96758.00;;;28.90
21898;BMP180;11113;48.662;9.056;2022-07-19T21:17:52;96754.00;;;28.80
21898;BMP180;11113;48.662;9.056;2022-07-19T21:20:19;96754.00;;;28.80
21898;BMP180;11113;48.662;9.056;2022-07-19T21:22:46;96758.00;;;28.70
21898;BMP180;11113;48.662;9.056;2022-07-19T21:25:15;96763.00;;;28.60
21898;BMP180;11113;48.662;9.056;2022-07-19T21:27:41;96762.00;;;28.50
21898;BMP180;11113;48.662;9.056;2022-07-19T21:30:11;96769.00;;;28.30
21898;BMP180;11113;48.662;9.056;2022-07-19T21:32:37;96759.00;;;28.10
21898;BMP180;11113;48.662;9.056;2022-07-19T21:35:04;96759.00;;;28.10
21898;BMP180;11113;48.662;9.056;2022-07-19T21:37:30;96755.00;;;28.10
21898;BMP180;11113;48.662;9.056;2022-07-19T21:39:56;96758.00;;;28.10
21898;BMP180;11113;48.662;9.056;2022-07-19T21:42:22;96760.00;;;28.10
21898;BMP180;11113;48.662;9.056;2022-07-19T21:44:48;96763.00;;;28.00
21898;BMP180;11113;48.662;9.056;2022-07-19T21:47:15;96767.00;;;27.80
21898;BMP180;11113;48.662;9.056;2022-07-19T21:49:41;96762.00;;;27.70
21898;BMP180;11113;48.662;9.056;2022-07-19T21:52:07;96758.00;;;27.60
21898;BMP180;11113;48.662;9.056;2022-07-19T21:54:33;96760.00;;;27.50
21898;BMP180;11113;48.662;9.056;2022-07-19T21:56:59;96761.00;;;27.50
21898;BMP180;11113;48.662;9.056;2022-07-19T21:59:26;96766.00;;;27.50
21898;BMP180;11113;48.662;9.056;2022-07-19T22:01:52;96760.00;;;27.60
21898;BMP180;11113;48.662;9.056;2022-07-19T22:04:18;96770.00;;;27.70
21898;BMP180;11113;48.662;9.056;2022-07-19T22:06:44;96761.00;;;27.70
21898;BMP180;11113;48.662;9.056;2022-07-19T22:09:10;96763.00;;;27.60
21898;BMP180;11113;48.662;9.056;2022-07-19T22:11:39;96767.00;;;27.60
21898;BMP180;11113;48.662;9.056;2022-07-19T22:14:05;96772.00;;;27.60
21898;BMP180;11113;48.662;9.056;2022-07-19T22:16:32;96769.00;;;27.50
21898;BMP180;11113;48.662;9.056;2022-07-19T22:18:58;96761.00;;;27.40
21898;BMP180;11113;48.662;9.056;2022-07-19T22:21:24;96759.00;;;27.40
21898;BMP180;11113;48.662;9.056;2022-07-19T22:23:50;96766.00;;;27.40
21898;BMP180;11113;48.662;9.056;2022-07-19T22:26:16;96763.00;;;27.50
21898;BMP180;11113;48.662;9.056;2022-07-19T22:28:42;96768.00;;;27.50
21898;BMP180;11113;48.662;9.056;2022-07-19T22:31:09;96768.00;;;27.40
21898;BMP180;11113;48.662;9.056;2022-07-19T22:33:37;96762.00;;;27.40
21898;BMP180;11113;48.662;9.056;2022-07-19T22:36:04;96757.00;;;27.30
21898;BMP180;11113;48.662;9.056;2022-07-19T22:38:30;96753.00;;;27.30
21898;BMP180;11113;48.662;9.056;2022-07-19T22:40:56;96759.00;;;27.30
21898;BMP180;11113;48.662;9.056;2022-07-19T22:43:22;96756.00;;;27.20
21898;BMP180;11113;48.662;9.056;2022-07-19T22:45:48;96766.00;;;27.10
21898;BMP180;11113;48.662;9.056;2022-07-19T22:48:14;96762.00;;;27.00
21898;BMP180;11113;48.662;9.056;2022-07-19T22:50:41;96760.00;;;27.20
21898;BMP180;11113;48.662;9.056;2022-07-19T22:53:07;96757.00;;;27.20
21898;BMP180;11113;48.662;9.056;2022-07-19T22:55:37;96756.00;;;27.30
21898;BMP180;11113;48.662;9.056;2022-07-19T22:58:04;96754.00;;;27.20
21898;BMP180;11113;48.662;9.056;2022-07-19T23:00:30;96762.00;;;27.10
21898;BMP180;11113;48.662;9.056;2022-07-19T23:02:56;96756.00;;;27.00
21898;BMP180;11113;48.662;9.056;2022-07-19T23:05:22;96755.00;;;26.90
21898;BMP180;11113;48.662;9.056;2022-07-19T23:07:48;96761.00;;;26.80
21898;BMP180;11113;48.662;9.056;2022-07-19T23:10:15;96750.00;;;26.70
21898;BMP180;11113;48.662;9.056;2022-07-19T23:12:40;96749.00;;;26.50
21898;BMP180;11113;48.662;9.056;2022-07-19T23:15:07;96746.00;;;26.40
21898;BMP180;11113;48.662;9.056;2022-07-19T23:17:34;96744.00;;;26.20
21898;BMP180;11113;48.662;9.056;2022-07-19T23:20:03;96744.00;;;26.00
21898;BMP180;11113;48.662;9.056;2022-07-19T23:22:29;96739.00;;;25.90
21898;BMP180;11113;48.662;9.056;2022-07-19T23:24:55;96735.00;;;25.90
21898;BMP180;11113;48.662;9.056;2022-07-19T23:27:21;96745.00;;;26.10
21898;BMP180;11113;48.662;9.056;2022-07-19T23:29:47;96743.00;;;26.30
21898;BMP180;11113;48.662;9.056;2022-07-19T23:32:13;96744.00;;;26.30
21898;BMP180;11113;48.662;9.056;2022-07-19T23:34:39;96746.00;;;26.20
21898;BMP180;11113;48.662;9.056;2022-07-19T23:37:06;96748.00;;;26.00
21898;BMP180;11113;48.662;9.056;2022-07-19T23:39:34;96739.00;;;25.90
21898;BMP180;11113;48.662;9.056;2022-07-19T23:42:03;96730.00;;;25.80
21898;BMP180;11113;48.662;9.056;2022-07-19T23:44:29;96736.00;;;25.70
21898;BMP180;11113;48.662;9.056;2022-07-19T23:46:56;96735.00;;;25.70
21898;BMP180;11113;48.662;9.056;2022-07-19T23:49:22;96733.00;;;25.60
21898;BMP180;11113;48.662;9.056;2022-07-19T23:51:49;96731.00;;;25.40
21898;BMP180;11113;48.662;9.056;2022-07-19T23:54:15;96731.00;;;25.40
21898;BMP180;11113;48.662;9.056;2022-07-19T23:56:42;96746.00;;;25.50
21898;BMP180;11113;48.662;9.056;2022-07-19T23:59:08;96735.00;;;25.40
